Pleasant Dale, Nebraska
Current Conditions -  °F | °C
As of 10:54 AM on Wednesday 26 Nov 2014 (Local Time) from KLNK Reporting Station
Overcast Overcast  
Wind Chill: 16°   Ceiling: 1300
Heat Index: 31°   Visibility: 10mi
Dew Point: 24°   Wind: 29mph
Humidity: 76%   Direction: 330°NNW
Pressure: 30.12"   Gusts: 37mph
Location:  40.79°N, 96.93°W
Report Text: KLNK 261654Z 33025G32KT 10SM OVC013 M01/M04 A3012 RMK AO2 PK WND 33032/1654 SLP209 T10061044
Loading
Personal Weather Stations






























Interactive Weather Map New forecast layout! Learn more

10-Day Weather Forecast

Advertisements
Track Severe Weather on mobile